Time;durP1;ratioP1;P1;durP2;ratioP2;P2;SDS_P1;SDS_P2;PMS_P1;PMS_P2;Temp;Humidity;BMP_temperature;BMP_pressure;BME280_temperature;BME280_humidity;BME280_pressure;Samples;Min_cycle;Max_cycle;Signal;HPM_P1;HPM_P2
2022/09/20 00:00:54;;;;;;;5.87;4.20;;;8.70;99.90;;;;;;5002736;28;20468;-88
2022/09/20 00:03:41;;;;;;;5.73;3.80;;;8.80;99.90;;;;;;4999787;28;20186;-89
2022/09/20 00:06:20;;;;;;;4.40;4.10;;;8.80;99.90;;;;;;4990993;28;20442;-89
2022/09/20 00:08:51;;;;;;;3.57;3.27;;;8.70;99.90;;;;;;5011468;28;20478;-88
2022/09/20 00:11:25;;;;;;;5.00;4.03;;;8.80;99.90;;;;;;5003296;28;20439;-89
2022/09/20 00:13:55;;;;;;;4.13;3.70;;;8.80;99.90;;;;;;4978983;28;20435;-89
2022/09/20 00:16:24;;;;;;;5.20;3.73;;;8.90;99.90;;;;;;5003284;28;21172;-89
2022/09/20 00:18:51;;;;;;;3.80;3.50;;;8.90;99.90;;;;;;4999835;28;20947;-90
2022/09/20 00:21:20;;;;;;;4.73;4.33;;;8.90;99.90;;;;;;4991558;28;20618;-90
2022/09/20 00:23:46;;;;;;;4.50;3.63;;;9.00;99.90;;;;;;4983380;28;20474;-89
2022/09/20 00:26:14;;;;;;;4.13;3.73;;;9.00;99.90;;;;;;4988583;28;20896;-88
2022/09/20 00:28:41;;;;;;;5.37;3.90;;;8.90;99.90;;;;;;5008194;28;20219;-88
2022/09/20 00:31:06;;;;;;;4.23;3.93;;;8.90;99.90;;;;;;4994235;28;20463;-91
2022/09/20 00:36:19;;;;;;;4.60;3.73;;;8.90;99.90;;;;;;5010601;28;20451;-91
2022/09/20 00:38:47;;;;;;;6.30;4.30;;;8.80;99.90;;;;;;4995228;28;20823;-90
2022/09/20 00:41:13;;;;;;;5.47;3.97;;;8.80;99.90;;;;;;4989710;28;20587;-91
2022/09/20 00:43:44;;;;;;;4.57;4.17;;;8.70;99.90;;;;;;4992706;28;20505;-91
2022/09/20 00:46:27;;;;;;;4.87;4.47;;;8.70;99.90;;;;;;5010739;28;20288;-91
2022/09/20 00:48:58;;;;;;;5.47;3.80;;;8.60;99.90;;;;;;5015443;28;20967;-90
2022/09/20 00:51:42;;;;;;;4.50;4.10;;;8.60;99.90;;;;;;5014495;28;20467;-91
2022/09/20 00:54:10;;;;;;;6.00;4.47;;;8.60;99.90;;;;;;4992214;28;20484;-91
2022/09/20 00:56:40;;;;;;;7.10;4.07;;;8.60;99.90;;;;;;5009599;28;20878;-92
2022/09/20 00:59:11;;;;;;;6.17;4.63;;;8.50;99.90;;;;;;5007459;28;20458;-91
2022/09/20 01:01:36;;;;;;;6.90;4.07;;;8.40;99.90;;;;;;4990319;28;20439;-90
2022/09/20 01:04:03;;;;;;;6.30;4.63;;;8.50;99.90;;;;;;4996344;28;20461;-91
2022/09/20 01:06:33;;;;;;;3.90;3.60;;;8.50;99.90;;;;;;4993113;28;20188;-89
2022/09/20 01:09:06;;;;;;;4.10;3.70;;;8.50;99.90;;;;;;5010424;28;20450;-90
2022/09/20 01:11:33;;;;;;;4.60;3.90;;;8.40;99.90;;;;;;4995601;28;20502;-91
2022/09/20 01:13:59;;;;;;;5.90;3.93;;;8.40;99.90;;;;;;4993024;28;20696;-91
2022/09/20 01:16:29;;;;;;;4.20;3.90;;;8.40;99.90;;;;;;4993579;28;20526;-90
2022/09/20 01:19:05;;;;;;;7.70;4.10;;;8.50;99.90;;;;;;5010800;28;20195;-91
2022/09/20 01:21:31;;;;;;;8.93;3.90;;;8.40;99.90;;;;;;5011233;28;20805;-89
2022/09/20 01:23:57;;;;;;;4.40;3.20;;;8.30;99.90;;;;;;4994196;28;20469;-89
2022/09/20 01:26:34;;;;;;;5.40;3.43;;;8.30;99.90;;;;;;4995425;28;20184;-89
2022/09/20 01:29:33;;;;;;;3.63;3.30;;;8.30;99.90;;;;;;5010104;28;20203;-90
2022/09/20 01:32:07;;;;;;;3.60;3.30;;;8.30;99.90;;;;;;4960822;28;20468;-89
2022/09/20 01:34:35;;;;;;;3.67;3.37;;;8.20;99.90;;;;;;5009798;28;20983;-89
2022/09/20 01:37:21;;;;;;;3.50;3.20;;;8.20;99.90;;;;;;4987458;28;20495;-89
2022/09/20 01:40:08;;;;;;;4.80;3.67;;;8.20;99.90;;;;;;4994665;28;20442;-89
2022/09/20 01:42:44;;;;;;;4.93;3.60;;;8.20;99.90;;;;;;4985641;28;20542;-90
2022/09/20 01:45:27;;;;;;;5.67;3.73;;;8.10;99.90;;;;;;4994164;28;20438;-89
2022/09/20 01:47:55;;;;;;;7.90;4.20;;;8.10;99.90;;;;;;4980687;28;20495;-88
2022/09/20 01:50:42;;;;;;;4.87;3.90;;;8.10;99.90;;;;;;5003325;28;20796;-89
2022/09/20 01:53:40;;;;;;;4.90;3.43;;;8.00;99.90;;;;;;5001361;28;20467;-89
2022/09/20 01:56:41;;;;;;;3.50;3.20;;;8.00;99.90;;;;;;5005066;28;20453;-89
2022/09/20 01:59:28;;;;;;;3.13;2.93;;;8.10;99.90;;;;;;5013028;28;20481;-89
2022/09/20 02:02:08;;;;;;;3.23;2.93;;;8.00;99.90;;;;;;4985869;28;20446;-89
2022/09/20 02:05:08;;;;;;;3.77;3.37;;;8.00;99.90;;;;;;4994256;28;20447;-90
2022/09/20 02:08:04;;;;;;;3.70;3.17;;;8.00;99.90;;;;;;4954394;28;20868;-90
2022/09/20 02:10:48;;;;;;;5.13;3.27;;;8.00;99.90;;;;;;5005923;28;20446;-90
2022/09/20 02:13:19;;;;;;;5.43;3.37;;;8.00;99.90;;;;;;5002362;28;20586;-91
2022/09/20 02:16:15;;;;;;;3.57;3.00;;;8.00;99.90;;;;;;5010334;28;20462;-88
2022/09/20 02:19:18;;;;;;;4.20;3.37;;;7.90;99.90;;;;;;4995597;28;20443;-90
2022/09/20 02:22:16;;;;;;;3.63;3.27;;;7.90;99.90;;;;;;4991086;28;20452;-91
2022/09/20 02:25:16;;;;;;;4.60;4.00;;;7.80;99.90;;;;;;5008345;28;20493;-90
2022/09/20 02:27:52;;;;;;;3.73;3.10;;;7.90;99.90;;;;;;4993506;28;20502;-90
2022/09/20 02:30:49;;;;;;;4.87;3.00;;;7.90;99.90;;;;;;4991555;28;20588;-90
2022/09/20 02:33:46;;;;;;;7.20;3.17;;;7.90;99.90;;;;;;5008673;28;20514;-90
2022/09/20 02:36:32;;;;;;;4.10;2.87;;;8.00;99.90;;;;;;5002611;28;20446;-89
2022/09/20 02:39:22;;;;;;;3.57;3.27;;;7.90;99.90;;;;;;5002985;28;20519;-89
2022/09/20 02:41:57;;;;;;;3.70;3.40;;;7.80;99.90;;;;;;5002202;28;20450;-89
2022/09/20 02:44:38;;;;;;;5.10;3.37;;;7.80;99.90;;;;;;5002496;28;20561;-89
2022/09/20 02:47:34;;;;;;;14.43;3.37;;;7.70;99.90;;;;;;4998407;28;20816;-89
2022/09/20 02:50:07;;;;;;;4.80;3.40;;;7.70;99.90;;;;;;5019097;28;20435;-89
2022/09/20 02:53:14;;;;;;;3.33;3.03;;;7.80;99.90;;;;;;4999535;28;20585;-89
2022/09/20 02:55:57;;;;;;;7.03;3.37;;;7.90;99.90;;;;;;4973223;28;20439;-89
2022/09/20 02:58:27;;;;;;;4.90;3.37;;;7.90;99.90;;;;;;5022766;28;20507;-89
2022/09/20 03:01:24;;;;;;;5.20;3.20;;;7.90;99.90;;;;;;4999581;28;20430;-89
2022/09/20 03:04:12;;;;;;;6.13;3.47;;;7.90;99.90;;;;;;5005200;28;20458;-90
2022/09/20 03:07:02;;;;;;;4.73;3.33;;;8.00;99.90;;;;;;5020431;28;20436;-89
2022/09/20 03:09:37;;;;;;;4.10;3.17;;;8.00;99.90;;;;;;5016040;28;20439;-89
2022/09/20 03:12:05;;;;;;;5.00;3.70;;;8.00;99.90;;;;;;5018056;28;20462;-90
2022/09/20 03:14:44;;;;;;;3.53;2.73;;;8.00;99.90;;;;;;5004263;28;20454;-89
2022/09/20 03:17:17;;;;;;;3.37;2.90;;;8.00;99.90;;;;;;4999558;28;20463;-89
2022/09/20 03:19:57;;;;;;;3.97;3.13;;;8.00;99.90;;;;;;5002261;28;20454;-89
2022/09/20 03:22:38;;;;;;;3.17;2.93;;;8.00;99.90;;;;;;5014823;28;20565;-90
2022/09/20 03:25:21;;;;;;;4.37;3.57;;;8.00;99.90;;;;;;5001981;28;20538;-89
2022/09/20 03:28:08;;;;;;;6.57;3.47;;;8.00;99.90;;;;;;5003774;28;20446;-89
2022/09/20 03:31:19;;;;;;;7.83;3.77;;;8.00;99.90;;;;;;4999958;28;20439;-89
2022/09/20 03:33:54;;;;;;;4.10;2.90;;;8.00;99.90;;;;;;5017141;28;20460;-89
2022/09/20 03:36:47;;;;;;;5.10;3.50;;;8.00;99.90;;;;;;4989551;28;20489;-89
2022/09/20 03:39:35;;;;;;;5.00;3.23;;;8.00;99.90;;;;;;4993863;28;20443;-89
2022/09/20 03:42:12;;;;;;;4.83;3.40;;;8.00;99.90;;;;;;5007210;28;20450;-89
2022/09/20 03:44:50;;;;;;;4.20;3.17;;;8.00;99.90;;;;;;4996990;28;20438;-89
2022/09/20 03:47:41;;;;;;;5.00;3.67;;;8.00;99.90;;;;;;4996759;28;20434;-91
2022/09/20 03:50:25;;;;;;;3.57;3.23;;;8.10;99.90;;;;;;5004722;28;20508;-91
2022/09/20 03:53:03;;;;;;;5.40;3.47;;;8.00;99.90;;;;;;4999920;28;20505;-92
2022/09/20 03:55:31;;;;;;;4.63;3.00;;;8.00;99.90;;;;;;5004134;28;20473;-90
2022/09/20 03:58:13;;;;;;;3.90;3.00;;;8.00;99.90;;;;;;4993865;28;21040;-90
2022/09/20 04:00:39;;;;;;;2.97;2.77;;;8.10;99.90;;;;;;5006268;28;20447;-90
2022/09/20 04:03:24;;;;;;;4.03;3.47;;;8.20;99.90;;;;;;4998074;28;20439;-90
2022/09/20 04:06:12;;;;;;;4.50;3.20;;;8.10;99.90;;;;;;4985640;28;20602;-90
2022/09/20 04:09:02;;;;;;;5.73;3.63;;;8.10;99.90;;;;;;4993190;28;20477;-90
2022/09/20 04:11:49;;;;;;;3.37;2.73;;;8.10;99.90;;;;;;4989933;28;20504;-90
2022/09/20 04:14:46;;;;;;;4.67;3.23;;;8.00;99.90;;;;;;5002723;28;20618;-90
2022/09/20 04:17:30;;;;;;;2.87;2.67;;;8.10;99.90;;;;;;5005717;28;20440;-92
2022/09/20 04:20:31;;;;;;;4.07;3.00;;;8.10;99.90;;;;;;4990949;28;20614;-92
2022/09/20 04:23:01;;;;;;;3.50;3.20;;;8.00;99.90;;;;;;4970056;28;20492;-92
2022/09/20 04:25:32;;;;;;;4.17;3.03;;;8.10;99.90;;;;;;5004886;28;21142;-89
2022/09/20 04:28:15;;;;;;;4.60;3.67;;;8.00;99.90;;;;;;4986078;28;21060;-91
2022/09/20 04:30:45;;;;;;;5.30;4.80;;;8.00;99.90;;;;;;4989411;28;21013;-90
2022/09/20 04:33:24;;;;;;;6.20;3.80;;;8.10;99.90;;;;;;4975742;28;21156;-92
2022/09/20 04:38:39;;;;;;;6.73;3.83;;;8.10;99.90;;;;;;5007991;28;20477;-89
2022/09/20 04:41:07;;;;;;;3.70;3.40;;;8.10;99.90;;;;;;4981077;28;20450;-91
2022/09/20 04:44:51;;;;;;;5.50;3.23;;;8.10;99.90;;;;;;5000399;28;20439;-94
2022/09/20 04:47:24;;;;;;;4.33;3.13;;;8.10;99.90;;;;;;4966719;28;20838;-93
2022/09/20 04:50:40;;;;;;;6.30;3.30;;;8.00;99.90;;;;;;5011374;28;20443;-96
2022/09/20 04:53:30;;;;;;;5.80;3.93;;;8.00;99.90;;;;;;4999628;28;20511;-94
2022/09/20 04:56:07;;;;;;;4.23;2.73;;;8.00;99.90;;;;;;5006783;28;21005;-91
2022/09/20 04:58:35;;;;;;;3.80;3.17;;;8.00;99.90;;;;;;4989634;28;20517;-93
2022/09/20 05:01:18;;;;;;;4.77;3.03;;;8.00;99.90;;;;;;4998135;28;20901;-93
2022/09/20 05:04:02;;;;;;;4.00;3.17;;;8.00;99.90;;;;;;5007882;28;20957;-93
2022/09/20 05:07:06;;;;;;;6.80;2.90;;;8.00;99.90;;;;;;4992318;28;20529;-93
2022/09/20 05:09:55;;;;;;;5.80;3.10;;;8.00;99.90;;;;;;4990578;28;20450;-89
2022/09/20 05:12:39;;;;;;;3.40;2.80;;;8.10;99.90;;;;;;4998341;28;20468;-93
2022/09/20 05:15:25;;;;;;;10.77;3.97;;;8.10;99.90;;;;;;4993582;28;21022;-94
2022/09/20 05:18:16;;;;;;;6.17;4.00;;;8.00;99.90;;;;;;4983856;28;20439;-91
2022/09/20 05:21:17;;;;;;;6.40;3.10;;;8.00;99.90;;;;;;4996163;28;20459;-90
2022/09/20 05:24:17;;;;;;;270.70;243.33;;;8.00;99.90;;;;;;4982282;28;20434;-93
2022/09/20 05:27:19;;;;;;;4.50;4.10;;;8.10;99.90;;;;;;4967428;28;20489;-95
2022/09/20 05:30:02;;;;;;;4.03;3.30;;;8.20;99.90;;;;;;5009442;28;20435;-91
2022/09/20 05:32:54;;;;;;;3.43;3.23;;;8.40;99.90;;;;;;4991763;28;21061;-91
2022/09/20 05:35:28;;;;;;;3.97;2.93;;;8.40;99.90;;;;;;4995506;28;21241;-90
2022/09/20 05:38:10;;;;;;;3.47;2.90;;;8.40;99.90;;;;;;4989915;28;20952;-91
2022/09/20 05:41:12;;;;;;;2.80;2.60;;;8.50;99.90;;;;;;5010066;28;20443;-91
2022/09/20 05:44:03;;;;;;;4.83;3.23;;;8.60;99.90;;;;;;4998526;28;20816;-90
2022/09/20 05:47:10;;;;;;;4.40;3.50;;;8.50;99.90;;;;;;4999549;28;21013;-90
2022/09/20 05:49:40;;;;;;;3.40;3.10;;;8.40;99.90;;;;;;4976224;28;20438;-90
2022/09/20 05:52:33;;;;;;;4.47;3.30;;;8.30;99.90;;;;;;4997449;28;20465;-88
2022/09/20 05:55:26;;;;;;;3.90;3.00;;;8.30;99.90;;;;;;4998152;28;20852;-89
2022/09/20 05:58:14;;;;;;;4.60;4.20;;;8.30;99.90;;;;;;4994336;28;20967;-89
2022/09/20 06:01:11;;;;;;;4.47;3.87;;;8.20;99.90;;;;;;5004463;28;20485;-88
2022/09/20 06:03:53;;;;;;;5.33;3.33;;;8.10;99.90;;;;;;4994647;28;20434;-91
2022/09/20 06:07:01;;;;;;;4.37;3.97;;;8.10;99.90;;;;;;5006766;28;20627;-89
2022/09/20 06:09:52;;;;;;;3.73;3.30;;;8.00;99.90;;;;;;5003590;28;20450;-90
2022/09/20 06:12:34;;;;;;;4.63;3.27;;;7.90;99.90;;;;;;5013625;28;21192;-88
2022/09/20 06:15:27;;;;;;;6.63;4.00;;;7.90;99.90;;;;;;5011812;28;20830;-90
2022/09/20 06:18:18;;;;;;;4.03;3.63;;;8.00;99.90;;;;;;4990423;28;20485;-91
2022/09/20 06:21:05;;;;;;;5.03;3.30;;;8.10;99.90;;;;;;4993867;28;20839;-90
2022/09/20 06:23:34;;;;;;;8.73;4.57;;;8.20;99.90;;;;;;5008365;28;20458;-92
2022/09/20 06:26:22;;;;;;;13.00;5.40;;;8.40;99.90;;;;;;4997624;28;20538;-92
2022/09/20 06:29:01;;;;;;;9.57;6.33;;;8.50;99.90;;;;;;5007405;28;20662;-93
2022/09/20 06:31:26;;;;;;;13.60;6.50;;;8.60;99.90;;;;;;4990803;28;20442;-90
2022/09/20 06:34:02;;;;;;;9.23;7.03;;;8.60;99.90;;;;;;4998543;28;21642;-91
2022/09/20 06:42:14;;;;;;;9.93;5.70;;;8.70;99.90;;;;;;5010460;28;20450;-91
2022/09/20 06:44:42;;;;;;;8.43;7.63;;;8.80;99.90;;;;;;4988692;28;21169;-90
2022/09/20 06:47:12;;;;;;;8.50;6.70;;;8.80;99.90;;;;;;4989873;28;20193;-90
2022/09/20 06:49:40;;;;;;;8.17;7.27;;;8.80;99.90;;;;;;4993504;28;20578;-91
2022/09/20 06:52:09;;;;;;;7.10;6.40;;;8.60;99.90;;;;;;4989467;28;20470;-91
2022/09/20 06:54:36;;;;;;;6.27;5.60;;;8.70;99.90;;;;;;4994072;28;20462;-90
2022/09/20 06:57:04;;;;;;;6.53;5.93;;;8.70;99.90;;;;;;4996947;28;20751;-90
2022/09/20 06:59:44;;;;;;;7.63;5.60;;;8.80;99.90;;;;;;4995798;28;20443;-91
2022/09/20 07:02:21;;;;;;;6.13;3.93;;;9.00;99.90;;;;;;4998006;28;20447;-90
2022/09/20 07:05:25;;;;;;;4.83;3.93;;;9.00;99.90;;;;;;5013042;28;20461;-91
2022/09/20 07:07:58;;;;;;;10.70;4.57;;;9.10;99.90;;;;;;4997559;28;20560;-91
2022/09/20 07:10:29;;;;;;;6.33;4.13;;;9.20;99.90;;;;;;4996518;28;20443;-91
2022/09/20 07:13:02;;;;;;;6.80;4.20;;;9.20;99.90;;;;;;5010585;28;20505;-91
2022/09/20 07:15:37;;;;;;;4.10;3.80;;;9.30;99.90;;;;;;4996507;28;20488;-90
2022/09/20 07:18:02;;;;;;;5.53;4.10;;;9.50;99.90;;;;;;4997641;28;20837;-90
2022/09/20 07:20:32;;;;;;;10.63;4.60;;;9.50;99.90;;;;;;5000670;28;20443;-91
2022/09/20 07:23:04;;;;;;;8.57;4.63;;;9.50;99.90;;;;;;4996662;28;20180;-90
2022/09/20 07:25:31;;;;;;;12.10;5.60;;;9.50;99.90;;;;;;5015509;28;20443;-89
2022/09/20 07:27:56;;;;;;;4.60;4.13;;;9.50;99.90;;;;;;5003978;28;20436;-91
2022/09/20 07:30:22;;;;;;;5.73;4.83;;;9.50;99.90;;;;;;4995850;28;20440;-90
2022/09/20 07:32:48;;;;;;;10.10;5.37;;;9.50;99.90;;;;;;4992790;28;20212;-90
2022/09/20 07:35:17;;;;;;;4.70;4.30;;;9.60;99.90;;;;;;5008491;28;20447;-90
2022/09/20 07:37:42;;;;;;;8.00;5.43;;;9.80;99.90;;;;;;4999619;28;20451;-90
2022/09/20 07:40:11;;;;;;;4.63;4.23;;;10.00;99.90;;;;;;4998880;28;20435;-89
2022/09/20 07:42:44;;;;;;;6.00;4.10;;;10.10;99.90;;;;;;5010758;28;20185;-90
2022/09/20 07:45:18;;;;;;;5.73;4.17;;;10.20;99.90;;;;;;4997085;28;20437;-89
2022/09/20 07:48:07;;;;;;;5.10;3.93;;;10.50;99.90;;;;;;5009387;28;20999;-91
2022/09/20 07:50:35;;;;;;;4.97;4.03;;;10.70;99.90;;;;;;4995349;28;20822;-89
2022/09/20 07:53:02;;;;;;;5.13;4.37;;;10.70;99.90;;;;;;5020039;28;20642;-88
2022/09/20 07:55:28;;;;;;;5.00;4.60;;;11.00;99.90;;;;;;5020998;28;20673;-89
2022/09/20 07:57:54;;;;;;;5.10;4.60;;;11.20;99.90;;;;;;5014036;28;20497;-90
2022/09/20 08:00:20;;;;;;;13.00;4.50;;;11.30;99.90;;;;;;4994438;28;20187;-90
2022/09/20 08:02:45;;;;;;;5.83;5.33;;;11.10;99.90;;;;;;4998142;28;20797;-90
2022/09/20 08:05:42;;;;;;;7.17;5.90;;;11.00;99.90;;;;;;5003846;28;20181;-91
2022/09/20 08:08:22;;;;;;;6.50;5.43;;;10.70;99.90;;;;;;5007129;28;20192;-90
2022/09/20 08:10:47;;;;;;;6.97;5.10;;;10.80;99.90;;;;;;5002002;28;20450;-90
2022/09/20 08:13:14;;;;;;;6.13;5.27;;;11.20;99.90;;;;;;4993505;28;20219;-91
2022/09/20 08:15:40;;;;;;;7.03;5.73;;;11.40;99.90;;;;;;4991797;28;20181;-90
2022/09/20 08:18:09;;;;;;;6.93;6.20;;;11.70;99.90;;;;;;4995471;28;20867;-90
2022/09/20 08:20:36;;;;;;;9.53;5.90;;;12.20;99.90;;;;;;4999687;28;20960;-90
2022/09/20 08:23:04;;;;;;;10.03;6.10;;;12.50;99.90;;;;;;4996582;28;20887;-91
2022/09/20 08:25:30;;;;;;;7.03;5.63;;;12.90;99.90;;;;;;5003994;28;20437;-90
2022/09/20 08:27:55;;;;;;;5.40;4.90;;;13.00;99.90;;;;;;4992760;28;20961;-91
2022/09/20 08:30:23;;;;;;;6.60;4.43;;;13.10;99.90;;;;;;4990097;28;20547;-90
2022/09/20 08:32:49;;;;;;;10.13;6.23;;;13.20;99.90;;;;;;4993950;28;20223;-91
2022/09/20 08:35:18;;;;;;;16.77;10.17;;;13.20;99.90;;;;;;5000100;28;21126;-91
2022/09/20 08:37:45;;;;;;;11.30;7.33;;;13.10;99.90;;;;;;5003053;28;20181;-90
2022/09/20 08:40:14;;;;;;;9.73;8.53;;;13.10;99.90;;;;;;4996536;28;20473;-90
2022/09/20 08:42:45;;;;;;;8.30;6.73;;;13.10;99.90;;;;;;4991892;28;20453;-91
2022/09/20 08:45:14;;;;;;;11.70;6.63;;;12.90;99.90;;;;;;4994879;28;21058;-92
2022/09/20 08:47:58;;;;;;;7.97;4.60;;;12.70;99.90;;;;;;4964460;28;20466;-90
2022/09/20 08:50:25;;;;;;;10.37;6.00;;;12.80;99.90;;;;;;5011401;28;20443;-91
2022/09/20 08:52:56;;;;;;;5.73;4.83;;;13.20;99.90;;;;;;4988023;28;20510;-92
2022/09/20 08:55:26;;;;;;;8.33;4.87;;;13.50;99.90;;;;;;5000752;28;21041;-90
2022/09/20 08:57:56;;;;;;;7.73;3.83;;;14.00;99.90;;;;;;5007484;28;20455;-91
2022/09/20 09:00:32;;;;;;;5.77;4.77;;;14.30;99.90;;;;;;4999691;28;20481;-90
2022/09/20 09:03:03;;;;;;;5.97;4.23;;;14.30;99.90;;;;;;5000043;28;20447;-91
2022/09/20 09:05:45;;;;;;;6.53;4.60;;;14.30;99.90;;;;;;4994473;28;20482;-90
2022/09/20 09:08:17;;;;;;;8.27;3.83;;;14.00;99.90;;;;;;4996536;28;20825;-90
2022/09/20 09:11:03;;;;;;;4.43;2.13;;;13.40;99.90;;;;;;5011599;28;21798;-90
2022/09/20 09:13:52;;;;;;;4.73;1.67;;;13.00;99.90;;;;;;4992223;28;21122;-90
2022/09/20 09:16:20;;;;;;;6.57;2.20;;;12.40;99.90;;;;;;5011147;28;20846;-91
2022/09/20 09:18:56;;;;;;;9.90;2.77;;;12.30;99.90;;;;;;4994642;28;21264;-89
2022/09/20 09:21:28;;;;;;;7.73;2.73;;;12.50;99.90;;;;;;4990659;28;20450;-90
2022/09/20 09:24:21;;;;;;;1.43;1.33;;;13.00;99.90;;;;;;4970294;28;20454;-90
2022/09/20 09:27:03;;;;;;;6.70;2.30;;;13.90;99.90;;;;;;5003013;28;20504;-90
2022/09/20 09:29:32;;;;;;;5.43;2.17;;;14.30;99.90;;;;;;4990966;28;20980;-90
2022/09/20 09:32:27;;;;;;;3.53;1.93;;;14.40;99.90;;;;;;4987738;28;20460;-90
2022/09/20 09:35:32;;;;;;;6.13;2.00;;;14.80;99.90;;;;;;4996529;28;20451;-93
2022/09/20 09:38:01;;;;;;;5.50;1.63;;;14.80;99.90;;;;;;4986735;28;20440;-90
2022/09/20 09:40:30;;;;;;;3.60;1.67;;;14.70;99.90;;;;;;4996528;28;20450;-92
2022/09/20 09:43:04;;;;;;;3.67;1.33;;;14.80;99.90;;;;;;5002827;28;20466;-92
2022/09/20 09:45:37;;;;;;;4.63;1.50;;;15.30;99.90;;;;;;4993785;28;21053;-92
2022/09/20 09:48:17;;;;;;;8.23;1.60;;;14.90;99.90;;;;;;4993963;28;20452;-92
2022/09/20 09:51:17;;;;;;;4.17;1.50;;;14.50;99.90;;;;;;5001628;28;20440;-92
2022/09/20 09:54:15;;;;;;;2.40;1.40;;;14.10;99.90;;;;;;4984664;28;20916;-92
2022/09/20 09:57:29;;;;;;;;;;;;;;;;;;;;;
2022/09/20 10:00:13;;;;;;;2.33;1.23;;;14.20;99.90;;;;;;5014342;28;20505;-91
2022/09/20 10:02:59;;;;;;;4.07;1.40;;;13.80;99.90;;;;;;5014203;28;20453;-90
2022/09/20 10:05:59;;;;;;;3.83;1.50;;;13.60;99.90;;;;;;4991865;28;20438;-91
2022/09/20 10:08:53;;;;;;;6.17;2.37;;;13.40;99.90;;;;;;5009128;28;20810;-90
2022/09/20 10:11:46;;;;;;;2.70;1.60;;;13.50;99.90;;;;;;5013552;28;20446;-90
2022/09/20 10:14:18;;;;;;;4.97;1.70;;;13.60;99.90;;;;;;5012324;28;20462;-90
2022/09/20 10:17:12;;;;;;;3.70;2.10;;;13.60;99.90;;;;;;5013321;28;20497;-89
2022/09/20 10:19:57;;;;;;;3.80;1.70;;;13.70;99.90;;;;;;5014663;28;20482;-91
2022/09/20 10:22:53;;;;;;;4.80;2.40;;;14.20;99.90;;;;;;4998134;28;20821;-91
2022/09/20 10:25:30;;;;;;;6.43;3.80;;;15.20;99.90;;;;;;5009239;28;20450;-91
2022/09/20 10:28:31;;;;;;;5.03;2.23;;;15.50;99.90;;;;;;4988600;28;20453;-91
2022/09/20 10:31:02;;;;;;;8.20;3.03;;;15.10;99.90;;;;;;4991761;28;20483;-91
2022/09/20 10:33:37;;;;;;;5.17;2.20;;;14.60;99.90;;;;;;5008450;28;20474;-91
2022/09/20 10:36:26;;;;;;;3.57;3.27;;;14.30;99.90;;;;;;5008732;28;20512;-91
2022/09/20 10:38:57;;;;;;;7.10;4.87;;;14.10;99.90;;;;;;4998471;28;20446;-91
2022/09/20 10:45:14;;;;;;;5.83;2.23;;;13.70;99.90;;;;;;5014152;28;20454;-92
2022/09/20 10:47:58;;;;;;;4.00;2.20;;;13.50;99.90;;;;;;4910309;29;20443;-91
2022/09/20 10:50:47;;;;;;;3.87;1.77;;;13.80;99.90;;;;;;4916757;29;20451;-91
2022/09/20 10:53:34;;;;;;;5.33;1.90;;;14.00;99.90;;;;;;4975572;28;20575;-91
2022/09/20 10:56:27;;;;;;;8.93;2.00;;;14.40;99.90;;;;;;4997514;28;20432;-90
2022/09/20 10:59:12;;;;;;;6.00;2.20;;;14.70;99.90;;;;;;4996106;28;20516;-90
2022/09/20 11:01:50;;;;;;;2.80;1.77;;;15.00;99.90;;;;;;4999515;28;20439;-90
2022/09/20 11:04:36;;;;;;;5.80;1.90;;;15.10;99.90;;;;;;4997641;28;20464;-91
2022/09/20 11:07:17;;;;;;;4.50;1.93;;;15.10;99.90;;;;;;4991738;28;21205;-91
2022/09/20 11:09:52;;;;;;;2.60;1.83;;;14.70;99.90;;;;;;4997244;28;20565;-90
2022/09/20 11:12:37;;;;;;;6.00;1.90;;;15.00;99.90;;;;;;5003263;28;20465;-92
2022/09/20 11:15:13;;;;;;;3.07;1.60;;;15.90;99.90;;;;;;5015288;28;20446;-91
2022/09/20 11:17:44;;;;;;;4.53;2.13;;;16.30;97.00;;;;;;5019261;28;20434;-90
2022/09/20 11:20:36;;;;;;;4.97;1.70;;;16.30;96.30;;;;;;4996707;28;20439;-91
2022/09/20 11:23:24;;;;;;;7.40;1.83;;;15.80;95.60;;;;;;4998080;28;20968;-90
2022/09/20 11:25:59;;;;;;;2.40;1.27;;;15.40;96.20;;;;;;4997610;28;20530;-91
2022/09/20 11:28:29;;;;;;;2.90;1.00;;;15.00;96.70;;;;;;4993840;28;20438;-91
2022/09/20 11:31:54;;;;;;;4.00;1.80;;;14.50;96.80;;;;;;5011930;28;20470;-92
2022/09/20 11:34:29;;;;;;;3.70;1.63;;;14.50;98.60;;;;;;4943960;28;20483;-91
2022/09/20 11:37:00;;;;;;;2.80;1.60;;;14.70;99.90;;;;;;4996521;28;20431;-91
2022/09/20 11:39:54;;;;;;;3.00;1.47;;;15.20;99.80;;;;;;4997621;28;20436;-91
2022/09/20 11:42:35;;;;;;;1.70;1.40;;;15.30;98.60;;;;;;5012697;28;20439;-92
2022/09/20 11:45:02;;;;;;;6.63;1.80;;;15.10;98.30;;;;;;5014049;28;20456;-92
2022/09/20 11:47:49;;;;;;;4.70;1.50;;;14.60;97.80;;;;;;4997653;28;20454;-92
2022/09/20 11:50:39;;;;;;;2.30;1.43;;;14.60;99.20;;;;;;5004006;28;20466;-90
2022/09/20 11:53:26;;;;;;;1.83;1.07;;;14.90;96.80;;;;;;4999775;28;22025;-90
2022/09/20 11:56:00;;;;;;;3.17;1.50;;;15.10;94.90;;;;;;4993152;28;20442;-91
2022/09/20 11:58:26;;;;;;;4.20;1.43;;;15.10;94.10;;;;;;5016257;28;20505;-91
2022/09/20 12:00:55;;;;;;;3.83;1.10;;;15.60;93.60;;;;;;5012346;28;20478;-90
2022/09/20 12:03:27;;;;;;;3.60;1.43;;;15.90;93.10;;;;;;5000699;28;20443;-91
2022/09/20 12:06:48;;;;;;;4.30;1.10;;;15.90;93.70;;;;;;5000206;28;20481;-90
2022/09/20 12:09:25;;;;;;;3.10;1.40;;;16.40;92.60;;;;;;4976650;28;20443;-91
2022/09/20 12:11:52;;;;;;;2.67;1.30;;;17.00;91.80;;;;;;4979351;28;20925;-93
2022/09/20 12:14:23;;;;;;;2.10;1.00;;;17.40;91.90;;;;;;4999495;28;20671;-92
2022/09/20 12:16:50;;;;;;;2.87;1.40;;;17.80;90.80;;;;;;4999850;28;20462;-91
2022/09/20 12:19:35;;;;;;;2.00;1.40;;;17.80;91.80;;;;;;5000685;28;20434;-90
2022/09/20 12:22:02;;;;;;;3.60;1.47;;;16.70;91.10;;;;;;4994226;28;20442;-90
2022/09/20 12:24:29;;;;;;;2.50;1.47;;;15.90;92.40;;;;;;4998396;28;20446;-91
2022/09/20 12:27:23;;;;;;;2.10;1.33;;;15.50;92.40;;;;;;5000187;28;20508;-91
2022/09/20 12:29:53;;;;;;;3.17;1.53;;;15.30;93.30;;;;;;4967569;28;20603;-91
2022/09/20 12:32:46;;;;;;;4.60;1.87;;;15.30;95.10;;;;;;5017316;28;20557;-92
2022/09/20 12:35:37;;;;;;;2.80;1.67;;;14.90;94.20;;;;;;5000493;28;20450;-89
2022/09/20 12:38:37;;;;;;;2.10;1.90;;;14.70;91.70;;;;;;4999877;28;20456;-91
2022/09/20 12:41:19;;;;;;;1.70;1.60;;;14.50;91.50;;;;;;4967319;28;20474;-94
2022/09/20 12:44:01;;;;;;;4.43;1.63;;;14.50;93.10;;;;;;4995670;28;20614;-94
2022/09/20 12:47:16;;;;;;;3.47;1.80;;;14.50;92.80;;;;;;5000826;28;20435;-94
2022/09/20 12:54:00;;;;;;;1.77;1.67;;;15.10;91.80;;;;;;4978392;28;20972;-93
2022/09/20 12:56:39;;;;;;;3.10;1.97;;;15.30;91.70;;;;;;5017046;28;20477;-93
2022/09/20 12:59:26;;;;;;;2.63;1.80;;;15.30;91.40;;;;;;5015356;28;20518;-94
2022/09/20 13:02:40;;;;;;;2.67;1.60;;;15.80;88.40;;;;;;5017284;28;20451;-96
2022/09/20 13:05:30;;;;;;;3.00;1.80;;;16.50;90.60;;;;;;5023393;28;20533;-95
2022/09/20 13:08:38;;;;;;;1.80;1.70;;;17.00;88.10;;;;;;4991490;28;20482;-96
2022/09/20 13:11:39;;;;;;;3.30;1.70;;;17.20;90.00;;;;;;5012107;28;20451;-89
2022/09/20 13:14:05;;;;;;;2.57;1.60;;;16.90;86.40;;;;;;5011250;28;20451;-89
2022/09/20 13:16:37;;;;;;;2.60;1.97;;;16.80;83.50;;;;;;5002867;28;20426;-92
2022/09/20 13:19:06;;;;;;;2.73;1.70;;;16.30;89.40;;;;;;4997830;28;20447;-89
2022/09/20 13:21:36;;;;;;;2.43;1.80;;;16.40;85.40;;;;;;5000737;28;20475;-91
2022/09/20 13:24:03;;;;;;;4.70;2.03;;;16.70;85.50;;;;;;4993896;28;20439;-89
2022/09/20 13:26:38;;;;;;;2.70;2.27;;;16.80;82.60;;;;;;4993923;28;20946;-89
2022/09/20 13:29:08;;;;;;;2.33;2.13;;;17.10;83.10;;;;;;4989740;28;20985;-90
2022/09/20 13:31:34;;;;;;;2.93;2.67;;;17.00;84.00;;;;;;4993662;28;20526;-88
2022/09/20 13:34:29;;;;;;;2.87;2.20;;;17.10;83.50;;;;;;4990074;28;20443;-89
2022/09/20 13:36:59;;;;;;;3.10;2.67;;;17.10;82.80;;;;;;4969880;28;20521;-89
2022/09/20 13:40:10;;;;;;;8.17;2.33;;;16.60;84.00;;;;;;4986396;28;20474;-89
2022/09/20 13:43:07;;;;;;;5.00;1.53;;;16.70;89.20;;;;;;4992381;28;21013;-90
2022/09/20 13:46:00;;;;;;;4.73;2.00;;;17.30;89.40;;;;;;5010916;28;20446;-89
2022/09/20 13:48:47;;;;;;;1.57;1.17;;;17.90;89.20;;;;;;4989027;28;20963;-88
2022/09/20 13:51:33;;;;;;;4.40;1.50;;;17.70;86.00;;;;;;4994538;28;20439;-89
2022/09/20 13:54:26;;;;;;;2.80;1.97;;;17.80;86.00;;;;;;5006411;28;20588;-88
2022/09/20 13:56:54;;;;;;;2.77;1.30;;;16.90;84.20;;;;;;4985694;28;20497;-88
2022/09/20 13:59:19;;;;;;;3.90;1.67;;;16.60;87.30;;;;;;4989100;28;20442;-90
2022/09/20 14:01:54;;;;;;;4.73;1.50;;;16.20;88.60;;;;;;4990575;28;20979;-89
2022/09/20 14:04:24;;;;;;;5.03;2.10;;;15.80;87.20;;;;;;5011217;28;20542;-89
2022/09/20 14:06:53;;;;;;;3.70;2.17;;;15.60;89.60;;;;;;5005836;28;20516;-87
2022/09/20 14:09:40;;;;;;;2.83;1.60;;;15.80;87.40;;;;;;4993770;28;20505;-90
2022/09/20 14:12:07;;;;;;;3.23;1.40;;;16.20;86.10;;;;;;4999706;28;21025;-91
2022/09/20 14:14:34;;;;;;;4.03;1.40;;;16.50;85.90;;;;;;4994779;28;20439;-91
2022/09/20 14:17:04;;;;;;;2.10;1.43;;;16.80;86.50;;;;;;5001243;28;20445;-91
2022/09/20 14:19:35;;;;;;;2.93;1.43;;;16.40;85.40;;;;;;5010279;28;20451;-91